sensor_id;sensor_type;location;lat;lon;timestamp;pressure;altitude;pressure_sealevel;temperature;humidity
4123;BME280;2075;51.062;6.920;2023-04-27T00:00:01;94651.66;;;-144.48;85.93
4123;BME280;2075;51.062;6.920;2023-04-27T00:02:52;94621.19;;;-144.48;87.08
4123;BME280;2075;51.062;6.920;2023-04-27T00:05:38;94651.66;;;-144.48;88.48
4123;BME280;2075;51.062;6.920;2023-04-27T00:08:24;94535.84;;;-144.48;90.87
4123;BME280;2075;51.062;6.920;2023-04-27T00:11:09;94615.09;;;-144.48;91.80
4123;BME280;2075;51.062;6.920;2023-04-27T00:13:55;94590.72;;;-144.48;92.14
4123;BME280;2075;51.062;6.920;2023-04-27T00:16:42;94546.03;;;-144.48;92.55
4123;BME280;2075;51.062;6.920;2023-04-27T00:19:28;94566.34;;;-144.48;93.23
4123;BME280;2075;51.062;6.920;2023-04-27T00:22:14;94503.34;;;-144.48;93.87
4123;BME280;2075;51.062;6.920;2023-04-27T00:24:59;94554.16;;;-144.48;93.16
4123;BME280;2075;51.062;6.920;2023-04-27T00:27:45;94873.16;;;-144.48;92.97
4123;BME280;2075;51.062;6.920;2023-04-27T00:30:31;94487.09;;;-144.48;92.53
4123;BME280;2075;51.062;6.920;2023-04-27T00:33:19;94562.28;;;-144.48;92.23
4123;BME280;2075;51.062;6.920;2023-04-27T00:36:06;94521.63;;;-144.48;92.00
4123;BME280;2075;51.062;6.920;2023-04-27T00:38:52;94594.78;;;-144.48;92.18
4123;BME280;2075;51.062;6.920;2023-04-27T00:41:37;94517.56;;;-144.48;91.75
4123;BME280;2075;51.062;6.920;2023-04-27T00:44:23;94537.88;;;-144.48;91.04
4123;BME280;2075;51.062;6.920;2023-04-27T00:47:09;94509.44;;;-144.48;92.02
4123;BME280;2075;51.062;6.920;2023-04-27T00:49:57;94497.25;;;-144.48;92.13
4123;BME280;2075;51.062;6.920;2023-04-27T00:52:43;94428.16;;;-144.48;93.26
4123;BME280;2075;51.062;6.920;2023-04-27T00:55:29;94395.66;;;-144.48;92.94
4123;BME280;2075;51.062;6.920;2023-04-27T00:58:14;94456.63;;;-144.48;93.85
4123;BME280;2075;51.062;6.920;2023-04-27T01:01:00;94462.72;;;-144.48;94.34
4123;BME280;2075;51.062;6.920;2023-04-27T01:03:47;94452.56;;;-144.48;94.70
4123;BME280;2075;51.062;6.920;2023-04-27T01:06:35;94440.38;;;-144.48;94.48
4123;BME280;2075;51.062;6.920;2023-04-27T01:09:21;94346.91;;;-144.48;94.26
4123;BME280;2075;51.062;6.920;2023-04-27T01:12:07;94464.75;;;-144.48;94.49
4123;BME280;2075;51.062;6.920;2023-04-27T01:14:53;94470.84;;;-144.48;95.05
4123;BME280;2075;51.062;6.920;2023-04-27T01:17:38;94481.00;;;-144.48;95.39
4123;BME280;2075;51.062;6.920;2023-04-27T01:20:25;94464.75;;;-144.48;95.81
4123;BME280;2075;51.062;6.920;2023-04-27T01:23:14;94454.59;;;-144.48;95.94
4123;BME280;2075;51.062;6.920;2023-04-27T01:26:00;94426.13;;;-144.48;95.71
4123;BME280;2075;51.062;6.920;2023-04-27T01:28:46;94454.59;;;-144.48;95.33
4123;BME280;2075;51.062;6.920;2023-04-27T01:31:31;94474.91;;;-144.48;95.56
4123;BME280;2075;51.062;6.920;2023-04-27T01:34:17;94485.06;;;-144.48;95.68
4123;BME280;2075;51.062;6.920;2023-04-27T01:37:05;94365.19;;;-144.48;98.47
4123;BME280;2075;51.062;6.920;2023-04-27T01:39:52;94147.81;;;-144.48;100.00
4123;BME280;2075;51.062;6.920;2023-04-27T01:42:37;93806.50;;;-144.48;100.00
4123;BME280;2075;51.062;6.920;2023-04-27T01:45:26;93402.28;;;-144.48;100.00
4123;BME280;2075;51.062;6.920;2023-04-27T01:48:11;92760.50;;;-144.48;100.00
4123;BME280;2075;51.062;6.920;2023-04-27T01:50:57;92062.00;;;-144.48;100.00
4123;BME280;2075;51.062;6.920;2023-04-27T01:53:42;92064.03;;;-144.48;100.00
4123;BME280;2075;51.062;6.920;2023-04-27T01:56:29;92198.03;;;-144.48;100.00
4123;BME280;2075;51.062;6.920;2023-04-27T01:59:15;92232.53;;;-144.48;100.00
4123;BME280;2075;51.062;6.920;2023-04-27T02:02:01;91909.72;;;-144.48;100.00
4123;BME280;2075;51.062;6.920;2023-04-27T02:04:47;91986.88;;;-144.48;100.00
4123;BME280;2075;51.062;6.920;2023-04-27T02:07:32;91720.91;;;-144.48;100.00
4123;BME280;2075;51.062;6.920;2023-04-27T02:10:18;91381.88;;;-144.48;100.00
4123;BME280;2075;51.062;6.920;2023-04-27T02:13:06;91769.63;;;-144.48;100.00
4123;BME280;2075;51.062;6.920;2023-04-27T02:15:53;90779.03;;;-144.48;100.00
4123;BME280;2075;51.062;6.920;2023-04-27T02:18:39;89598.00;;;-144.48;100.00
4123;BME280;2075;51.062;6.920;2023-04-27T02:21:26;87389.22;;;-144.48;100.00
4123;BME280;2075;51.062;6.920;2023-04-27T02:24:13;86458.66;;;-144.48;100.00
4123;BME280;2075;51.062;6.920;2023-04-27T02:26:59;81931.09;;;-144.48;100.00
4123;BME280;2075;51.062;6.920;2023-04-27T03:21:54;24822.16;;;-144.48;100.00
4123;BME280;2075;51.062;6.920;2023-04-27T03:24:40;22529.81;;;-144.48;100.00
4123;BME280;2075;51.062;6.920;2023-04-27T03:27:27;20239.06;;;-144.48;100.00
4123;BME280;2075;51.062;6.920;2023-04-27T03:30:13;19221.47;;;-144.48;100.00
4123;BME280;2075;51.062;6.920;2023-04-27T03:32:58;18967.13;;;-144.48;100.00
4123;BME280;2075;51.062;6.920;2023-04-27T03:35:44;19730.22;;;-144.48;100.00
4123;BME280;2075;51.062;6.920;2023-04-27T03:38:40;20493.53;;;-144.48;100.00
4123;BME280;2075;51.062;6.920;2023-04-27T03:41:26;20748.00;;;-144.48;100.00
4123;BME280;2075;51.062;6.920;2023-04-27T03:44:12;23803.16;;;-144.48;100.00
4123;BME280;2075;51.062;6.920;2023-04-27T03:46:57;26606.16;;;-144.48;100.00
4123;BME280;2075;51.062;6.920;2023-04-27T03:49:44;28136.09;;;-144.48;100.00
4123;BME280;2075;51.062;6.920;2023-04-27T03:52:29;28391.13;;;-144.48;100.00
4123;BME280;2075;51.062;6.920;2023-04-27T03:55:17;28391.13;;;-144.48;100.00
4123;BME280;2075;51.062;6.920;2023-04-27T03:58:03;32219.28;;;-144.48;100.00
4123;BME280;2075;51.062;6.920;2023-04-27T04:00:49;34262.75;;;-144.48;100.00
4123;BME280;2075;51.062;6.920;2023-04-27T04:03:36;35796.19;;;-144.48;100.00
4123;BME280;2075;51.062;6.920;2023-04-27T04:06:24;35029.38;;;-144.48;100.00
4123;BME280;2075;51.062;6.920;2023-04-27T04:09:11;39376.91;;;-144.48;100.00
4123;BME280;2075;51.062;6.920;2023-04-27T04:11:59;44498.88;;;-144.48;100.00
4123;BME280;2075;51.062;6.920;2023-04-27T04:14:45;45011.50;;;-144.48;100.00
4123;BME280;2075;51.062;6.920;2023-04-27T04:17:34;45780.56;;;-144.48;100.00
4123;BME280;2075;51.062;6.920;2023-04-27T04:20:20;54766.19;;;-144.48;100.00
4123;BME280;2075;51.062;6.920;2023-04-27T04:23:06;54766.19;;;-144.48;100.00
4123;BME280;2075;51.062;6.920;2023-04-27T04:25:51;51682.72;;;-144.48;100.00
4123;BME280;2075;51.062;6.920;2023-04-27T04:28:39;58881.84;;;-144.48;100.00
4123;BME280;2075;51.062;6.920;2023-04-27T04:31:25;65064.69;;;-144.48;100.00
4123;BME280;2075;51.062;6.920;2023-04-27T04:34:10;68676.53;;;-144.48;100.00
4123;BME280;2075;51.062;6.920;2023-04-27T04:36:58;83429.50;;;-144.48;100.00
4123;BME280;2075;51.062;6.920;2023-04-27T04:39:44;86330.94;;;-144.48;100.00
4123;BME280;2075;51.062;6.920;2023-04-27T04:42:30;85929.63;;;-144.48;100.00
4123;BME280;2075;51.062;6.920;2023-04-27T04:45:18;87667.00;;;-144.48;100.00
4123;BME280;2075;51.062;6.920;2023-04-27T04:48:03;90367.03;;;-144.48;100.00
4123;BME280;2075;51.062;6.920;2023-04-27T04:50:49;92167.56;;;-144.48;100.00
4123;BME280;2075;51.062;6.920;2023-04-27T04:53:35;92793.00;;;-144.48;100.00
4123;BME280;2075;51.062;6.920;2023-04-27T05:01:45;94009.66;;;-144.48;100.00
4123;BME280;2075;51.062;6.920;2023-04-27T05:04:31;94330.66;;;-144.48;100.00
4123;BME280;2075;51.062;6.920;2023-04-27T05:07:20;94371.28;;;-144.48;100.00
4123;BME280;2075;51.062;6.920;2023-04-27T05:10:07;94239.22;;;-144.48;100.00
4123;BME280;2075;51.062;6.920;2023-04-27T05:12:55;94420.03;;;-144.48;96.63
4123;BME280;2075;51.062;6.920;2023-04-27T05:15:41;94570.41;;;-144.48;94.02
4123;BME280;2075;51.062;6.920;2023-04-27T05:18:30;94460.69;;;-144.48;92.92
4123;BME280;2075;51.062;6.920;2023-04-27T05:21:18;94501.31;;;-144.48;91.28
4123;BME280;2075;51.062;6.920;2023-04-27T05:24:06;94517.56;;;-144.48;89.59
4123;BME280;2075;51.062;6.920;2023-04-27T05:26:52;94497.25;;;-144.48;87.34
4123;BME280;2075;51.062;6.920;2023-04-27T05:29:38;94397.69;;;-144.48;80.57
4123;BME280;2075;51.062;6.920;2023-04-27T05:32:26;93782.13;;;-144.48;47.81
4123;BME280;2075;51.062;6.920;2023-04-27T05:35:13;93292.59;;;-144.48;37.49
4123;BME280;2075;51.062;6.920;2023-04-27T05:37:59;93022.47;;;-144.48;32.94
4123;BME280;2075;51.062;6.920;2023-04-27T05:40:44;92790.97;;;-144.48;30.34
4123;BME280;2075;51.062;6.920;2023-04-27T05:43:30;92778.78;;;-144.48;29.81
4123;BME280;2075;51.062;6.920;2023-04-27T05:46:18;92665.06;;;-144.48;29.57
4123;BME280;2075;51.062;6.920;2023-04-27T05:49:04;92453.88;;;-144.48;28.14
4123;BME280;2075;51.062;6.920;2023-04-27T05:51:55;92307.66;;;-144.48;27.71
4123;BME280;2075;51.062;6.920;2023-04-27T05:54:49;92390.94;;;-144.48;27.84
4123;BME280;2075;51.062;6.920;2023-04-27T05:57:40;92437.63;;;-144.48;27.39
4123;BME280;2075;51.062;6.920;2023-04-27T06:00:25;92786.91;;;-144.48;29.28
4123;BME280;2075;51.062;6.920;2023-04-27T06:03:11;92790.97;;;-144.48;29.36
4123;BME280;2075;51.062;6.920;2023-04-27T06:05:59;92618.34;;;-144.48;28.79
4123;BME280;2075;51.062;6.920;2023-04-27T06:08:46;92464.03;;;-144.48;28.14
4123;BME280;2075;51.062;6.920;2023-04-27T06:11:32;92417.31;;;-144.48;27.50
4123;BME280;2075;51.062;6.920;2023-04-27T06:14:17;92267.06;;;-144.48;27.06
4123;BME280;2075;51.062;6.920;2023-04-27T06:17:03;92490.41;;;-144.48;27.14
4123;BME280;2075;51.062;6.920;2023-04-27T06:19:49;92549.31;;;-144.48;27.71
4123;BME280;2075;51.062;6.920;2023-04-27T06:22:34;92433.56;;;-144.48;27.49
4123;BME280;2075;51.062;6.920;2023-04-27T06:25:23;92374.69;;;-144.48;27.60
4123;BME280;2075;51.062;6.920;2023-04-27T06:28:09;92441.69;;;-144.48;27.68
4123;BME280;2075;51.062;6.920;2023-04-27T06:30:54;92210.22;;;-144.48;26.68
4123;BME280;2075;51.062;6.920;2023-04-27T06:33:40;91982.81;;;-144.48;25.96
4123;BME280;2075;51.062;6.920;2023-04-27T06:36:26;91767.59;;;-144.48;24.83
4123;BME280;2075;51.062;6.920;2023-04-27T06:39:12;92242.69;;;-144.48;25.94
4123;BME280;2075;51.062;6.920;2023-04-27T06:42:07;91940.16;;;-144.48;25.98
4123;BME280;2075;51.062;6.920;2023-04-27T06:45:04;92076.19;;;-144.48;25.55
4123;BME280;2075;51.062;6.920;2023-04-27T06:47:50;91814.28;;;-144.48;25.27
4123;BME280;2075;51.062;6.920;2023-04-27T06:50:36;91885.34;;;-144.48;24.82
4123;BME280;2075;51.062;6.920;2023-04-27T06:53:21;91978.75;;;-144.48;25.50
4123;BME280;2075;51.062;6.920;2023-04-27T06:56:09;91747.28;;;-144.48;24.63
4123;BME280;2075;51.062;6.920;2023-04-27T06:58:57;91442.78;;;-144.48;24.00
4123;BME280;2075;51.062;6.920;2023-04-27T07:01:43;91761.50;;;-144.48;24.41
4123;BME280;2075;51.062;6.920;2023-04-27T07:04:29;91812.25;;;-144.48;24.31
4123;BME280;2075;51.062;6.920;2023-04-27T07:07:15;91182.94;;;-144.48;23.61
4123;BME280;2075;51.062;6.920;2023-04-27T07:10:02;90600.44;;;-144.48;22.35
4123;BME280;2075;51.062;6.920;2023-04-27T07:12:47;90480.69;;;-144.48;21.57
4123;BME280;2075;51.062;6.920;2023-04-27T07:15:34;91320.97;;;-144.48;23.05
4123;BME280;2075;51.062;6.920;2023-04-27T07:18:20;91365.66;;;-144.48;23.24
4123;BME280;2075;51.062;6.920;2023-04-27T07:21:05;91568.66;;;-144.48;24.01
4123;BME280;2075;51.062;6.920;2023-04-27T07:23:51;91804.16;;;-144.48;24.52
4123;BME280;2075;51.062;6.920;2023-04-27T07:26:39;91582.84;;;-144.48;23.65
4123;BME280;2075;51.062;6.920;2023-04-27T07:29:25;91613.31;;;-144.48;23.61
4123;BME280;2075;51.062;6.920;2023-04-27T07:32:17;90959.69;;;-144.48;22.71
4123;BME280;2075;51.062;6.920;2023-04-27T07:35:05;91300.69;;;-144.48;22.76
4123;BME280;2075;51.062;6.920;2023-04-27T07:37:52;91207.31;;;-144.48;22.44
4123;BME280;2075;51.062;6.920;2023-04-27T07:40:39;91365.66;;;-144.48;22.51
4123;BME280;2075;51.062;6.920;2023-04-27T07:43:26;91061.16;;;-144.48;22.53
4123;BME280;2075;51.062;6.920;2023-04-27T07:46:12;91126.13;;;-144.48;21.80
4123;BME280;2075;51.062;6.920;2023-04-27T07:49:01;91430.59;;;-144.48;22.26
4123;BME280;2075;51.062;6.920;2023-04-27T07:51:48;91552.41;;;-144.48;22.92
4123;BME280;2075;51.062;6.920;2023-04-27T07:54:34;92126.97;;;-144.48;24.37
4123;BME280;2075;51.062;6.920;2023-04-27T07:57:20;91873.16;;;-144.48;23.74
4123;BME280;2075;51.062;6.920;2023-04-27T08:00:07;91184.97;;;-144.48;22.43
4123;BME280;2075;51.062;6.920;2023-04-27T08:02:56;91213.41;;;-144.48;22.08
4123;BME280;2075;51.062;6.920;2023-04-27T08:05:44;92159.44;;;-144.48;24.30
4123;BME280;2075;51.062;6.920;2023-04-27T08:08:35;92462.00;;;-144.48;25.02
4123;BME280;2075;51.062;6.920;2023-04-27T08:11:23;92321.88;;;-144.48;24.51
4123;BME280;2075;51.062;6.920;2023-04-27T08:14:11;92029.50;;;-144.48;23.90
4123;BME280;2075;51.062;6.920;2023-04-27T08:16:58;91911.75;;;-144.48;23.23
4123;BME280;2075;51.062;6.920;2023-04-27T08:19:44;91824.44;;;-144.48;23.36
4123;BME280;2075;51.062;6.920;2023-04-27T08:22:30;91836.63;;;-144.48;22.25
4123;BME280;2075;51.062;6.920;2023-04-27T08:25:16;91966.56;;;-144.48;22.83
4123;BME280;2075;51.062;6.920;2023-04-27T08:28:02;92157.41;;;-144.48;23.68
4123;BME280;2075;51.062;6.920;2023-04-27T08:30:48;92429.50;;;-144.48;24.21
4123;BME280;2075;51.062;6.920;2023-04-27T08:33:34;92510.72;;;-144.48;24.81
4123;BME280;2075;51.062;6.920;2023-04-27T08:36:21;92673.19;;;-144.48;25.53
4123;BME280;2075;51.062;6.920;2023-04-27T08:39:10;92827.53;;;-144.48;25.68
4123;BME280;2075;51.062;6.920;2023-04-27T08:41:57;92591.94;;;-144.48;24.96
4123;BME280;2075;51.062;6.920;2023-04-27T08:44:43;92663.03;;;-144.48;25.01
4123;BME280;2075;51.062;6.920;2023-04-27T08:47:29;92482.31;;;-144.48;24.82
4123;BME280;2075;51.062;6.920;2023-04-27T08:50:15;92161.47;;;-144.48;24.28
4123;BME280;2075;51.062;6.920;2023-04-27T08:53:01;92291.44;;;-144.48;23.86
4123;BME280;2075;51.062;6.920;2023-04-27T08:55:51;92057.94;;;-144.48;23.47
4123;BME280;2075;51.062;6.920;2023-04-27T08:58:48;92723.94;;;-144.48;24.99
4123;BME280;2075;51.062;6.920;2023-04-27T09:01:34;93014.38;;;-144.48;26.25
4123;BME280;2075;51.062;6.920;2023-04-27T09:04:23;93142.31;;;-144.48;27.24
4123;BME280;2075;51.062;6.920;2023-04-27T09:07:12;93262.16;;;-144.48;28.17
4123;BME280;2075;51.062;6.920;2023-04-27T09:10:01;93392.13;;;-144.48;29.74
4123;BME280;2075;51.062;6.920;2023-04-27T09:12:55;93446.97;;;-144.48;29.82
4123;BME280;2075;51.062;6.920;2023-04-27T09:15:43;93379.94;;;-144.48;28.71
4123;BME280;2075;51.062;6.920;2023-04-27T09:18:30;93274.34;;;-144.48;28.89
4123;BME280;2075;51.062;6.920;2023-04-27T09:21:22;93314.94;;;-144.48;29.19
4123;BME280;2075;51.062;6.920;2023-04-27T09:24:12;93272.28;;;-144.48;30.14
4123;BME280;2075;51.062;6.920;2023-04-27T09:27:02;93483.53;;;-144.48;31.26
4123;BME280;2075;51.062;6.920;2023-04-27T09:29:52;93556.66;;;-144.48;31.80
4123;BME280;2075;51.062;6.920;2023-04-27T09:32:47;93702.91;;;-144.48;31.81
4123;BME280;2075;51.062;6.920;2023-04-27T09:35:38;93526.19;;;-144.48;30.85
4123;BME280;2075;51.062;6.920;2023-04-27T09:38:28;93759.78;;;-144.48;30.92
4123;BME280;2075;51.062;6.920;2023-04-27T09:41:14;93511.97;;;-144.48;31.19
4123;BME280;2075;51.062;6.920;2023-04-27T09:44:02;93349.47;;;-144.48;30.82
4123;BME280;2075;51.062;6.920;2023-04-27T09:46:52;93542.44;;;-144.48;31.24
4123;BME280;2075;51.062;6.920;2023-04-27T09:49:38;93355.56;;;-144.48;31.15
4123;BME280;2075;51.062;6.920;2023-04-27T09:52:24;93495.72;;;-144.48;30.81
4123;BME280;2075;51.062;6.920;2023-04-27T09:55:21;93286.50;;;-144.48;31.18
4123;BME280;2075;51.062;6.920;2023-04-27T09:58:31;93737.44;;;-144.48;31.39
4123;BME280;2075;51.062;6.920;2023-04-27T10:01:28;93369.78;;;-144.48;31.56
4123;BME280;2075;51.062;6.920;2023-04-27T10:04:42;93412.44;;;-144.48;31.58
4123;BME280;2075;51.062;6.920;2023-04-27T10:07:31;93518.06;;;-144.48;32.42
4123;BME280;2075;51.062;6.920;2023-04-27T10:10:17;93308.84;;;-144.48;32.20
4123;BME280;2075;51.062;6.920;2023-04-27T10:13:03;93406.34;;;-144.48;31.38
4123;BME280;2075;51.062;6.920;2023-04-27T10:15:55;93371.81;;;-144.48;30.52
4123;BME280;2075;51.062;6.920;2023-04-27T10:18:55;93302.75;;;-144.48;30.91
4123;BME280;2075;51.062;6.920;2023-04-27T10:21:53;93487.59;;;-144.48;31.58
4123;BME280;2075;51.062;6.920;2023-04-27T10:24:48;93430.72;;;-144.48;31.03
4123;BME280;2075;51.062;6.920;2023-04-27T10:27:38;93420.56;;;-144.48;30.58
4123;BME280;2075;51.062;6.920;2023-04-27T10:30:30;93213.41;;;-144.48;29.80
4123;BME280;2075;51.062;6.920;2023-04-27T10:33:16;93282.44;;;-144.48;29.81
4123;BME280;2075;51.062;6.920;2023-04-27T10:36:13;93264.19;;;-144.48;29.45
4123;BME280;2075;51.062;6.920;2023-04-27T10:39:13;93258.09;;;-144.48;29.51
4123;BME280;2075;51.062;6.920;2023-04-27T10:42:00;93245.91;;;-144.48;29.01
4123;BME280;2075;51.062;6.920;2023-04-27T10:44:53;93400.25;;;-144.48;29.81
4123;BME280;2075;51.062;6.920;2023-04-27T10:47:42;93312.91;;;-144.48;30.00
4123;BME280;2075;51.062;6.920;2023-04-27T10:50:30;93241.84;;;-144.48;29.60
4123;BME280;2075;51.062;6.920;2023-04-27T10:53:17;93420.56;;;-144.48;30.13
4123;BME280;2075;51.062;6.920;2023-04-27T10:56:05;93329.16;;;-144.48;30.26
4123;BME280;2075;51.062;6.920;2023-04-27T10:58:51;93558.69;;;-144.48;30.55
4123;BME280;2075;51.062;6.920;2023-04-27T11:01:39;93440.88;;;-144.48;30.92
4123;BME280;2075;51.062;6.920;2023-04-27T11:04:36;93414.47;;;-144.48;30.72
4123;BME280;2075;51.062;6.920;2023-04-27T11:07:27;93296.66;;;-144.48;29.67
4123;BME280;2075;51.062;6.920;2023-04-27T11:10:22;93071.22;;;-144.48;29.22
4123;BME280;2075;51.062;6.920;2023-04-27T11:19:05;93122.00;;;-144.48;28.81
4123;BME280;2075;51.062;6.920;2023-04-27T11:22:01;93148.41;;;-144.48;28.89
4123;BME280;2075;51.062;6.920;2023-04-27T11:24:48;93195.13;;;-144.48;29.28
4123;BME280;2075;51.062;6.920;2023-04-27T11:27:38;93197.16;;;-144.48;29.29
4123;BME280;2075;51.062;6.920;2023-04-27T11:30:24;93367.75;;;-144.48;29.45
4123;BME280;2075;51.062;6.920;2023-04-27T11:33:10;93325.09;;;-144.48;30.24
4123;BME280;2075;51.062;6.920;2023-04-27T11:36:01;93310.88;;;-144.48;30.14
4123;BME280;2075;51.062;6.920;2023-04-27T11:38:48;93479.47;;;-144.48;30.29
4123;BME280;2075;51.062;6.920;2023-04-27T11:41:34;93371.81;;;-144.48;30.49
4123;BME280;2075;51.062;6.920;2023-04-27T11:44:25;93343.38;;;-144.48;30.69
4123;BME280;2075;51.062;6.920;2023-04-27T11:47:15;93388.06;;;-144.48;30.08
4123;BME280;2075;51.062;6.920;2023-04-27T11:50:05;93505.88;;;-144.48;31.65
4123;BME280;2075;51.062;6.920;2023-04-27T11:52:53;93473.38;;;-144.48;31.35
4123;BME280;2075;51.062;6.920;2023-04-27T11:55:39;93556.66;;;-144.48;31.86
4123;BME280;2075;51.062;6.920;2023-04-27T11:58:27;93601.34;;;-144.48;32.07
4123;BME280;2075;51.062;6.920;2023-04-27T12:01:13;93639.94;;;-144.48;32.51
4123;BME280;2075;51.062;6.920;2023-04-27T12:04:00;93503.84;;;-144.48;31.84
4123;BME280;2075;51.062;6.920;2023-04-27T12:06:46;93581.03;;;-144.48;31.80
4123;BME280;2075;51.062;6.920;2023-04-27T12:09:33;93599.31;;;-144.48;32.10
4123;BME280;2075;51.062;6.920;2023-04-27T12:12:19;93627.75;;;-144.48;32.35
4123;BME280;2075;51.062;6.920;2023-04-27T12:15:06;93501.81;;;-144.48;32.14
4123;BME280;2075;51.062;6.920;2023-04-27T12:17:52;93585.09;;;-144.48;32.13
4123;BME280;2075;51.062;6.920;2023-04-27T12:20:37;93554.63;;;-144.48;31.98
4123;BME280;2075;51.062;6.920;2023-04-27T12:36:20;93440.88;;;-144.48;32.08
4123;BME280;2075;51.062;6.920;2023-04-27T12:39:14;93455.09;;;-144.48;31.58
4123;BME280;2075;51.062;6.920;2023-04-27T12:42:00;93434.78;;;-144.48;32.18
4123;BME280;2075;51.062;6.920;2023-04-27T12:44:46;93426.66;;;-144.48;31.20
4123;BME280;2075;51.062;6.920;2023-04-27T12:47:32;93314.94;;;-144.48;30.08
4123;BME280;2075;51.062;6.920;2023-04-27T12:50:18;93446.97;;;-144.48;30.83
4123;BME280;2075;51.062;6.920;2023-04-27T12:53:05;93390.09;;;-144.48;30.84
4123;BME280;2075;51.062;6.920;2023-04-27T12:55:51;93377.91;;;-144.48;30.34
4123;BME280;2075;51.062;6.920;2023-04-27T12:58:36;93347.44;;;-144.48;30.21
4123;BME280;2075;51.062;6.920;2023-04-27T13:01:23;93404.31;;;-144.48;30.81
4123;BME280;2075;51.062;6.920;2023-04-27T13:04:18;93241.84;;;-144.48;30.31
4123;BME280;2075;51.062;6.920;2023-04-27T13:07:04;93532.28;;;-144.48;31.42
4123;BME280;2075;51.062;6.920;2023-04-27T13:09:52;93530.25;;;-144.48;30.79
4123;BME280;2075;51.062;6.920;2023-04-27T13:12:39;93300.72;;;-144.48;30.73
4123;BME280;2075;51.062;6.920;2023-04-27T13:15:24;93329.16;;;-144.48;30.61
4123;BME280;2075;51.062;6.920;2023-04-27T13:18:11;93381.97;;;-144.48;30.71
4123;BME280;2075;51.062;6.920;2023-04-27T13:20:57;93459.16;;;-144.48;31.25
4123;BME280;2075;51.062;6.920;2023-04-27T13:23:42;93455.09;;;-144.48;31.41
4123;BME280;2075;51.062;6.920;2023-04-27T13:26:29;93461.19;;;-144.48;31.04
4123;BME280;2075;51.062;6.920;2023-04-27T13:29:15;93444.94;;;-144.48;31.55
4123;BME280;2075;51.062;6.920;2023-04-27T13:32:01;93438.84;;;-144.48;31.46
4123;BME280;2075;51.062;6.920;2023-04-27T13:34:47;93428.69;;;-144.48;31.06
4123;BME280;2075;51.062;6.920;2023-04-27T13:37:32;93487.59;;;-144.48;31.31
4123;BME280;2075;51.062;6.920;2023-04-27T13:40:17;93418.53;;;-144.48;31.41
4123;BME280;2075;51.062;6.920;2023-04-27T13:43:04;93388.06;;;-144.48;31.38
4123;BME280;2075;51.062;6.920;2023-04-27T13:45:50;93365.72;;;-144.48;30.86
4123;BME280;2075;51.062;6.920;2023-04-27T13:48:37;93333.22;;;-144.48;31.23
4123;BME280;2075;51.062;6.920;2023-04-27T13:51:23;93357.59;;;-144.48;30.91
4123;BME280;2075;51.062;6.920;2023-04-27T13:54:11;93329.16;;;-144.48;31.19
4123;BME280;2075;51.062;6.920;2023-04-27T13:56:56;93373.84;;;-144.48;30.35
4123;BME280;2075;51.062;6.920;2023-04-27T13:59:44;93426.66;;;-144.48;30.66
4123;BME280;2075;51.062;6.920;2023-04-27T14:02:30;93388.06;;;-144.48;30.89
4123;BME280;2075;51.062;6.920;2023-04-27T14:05:16;93566.81;;;-144.48;30.66
4123;BME280;2075;51.062;6.920;2023-04-27T14:08:02;93394.16;;;-144.48;31.22
4123;BME280;2075;51.062;6.920;2023-04-27T14:10:48;93449.00;;;-144.48;31.10
4123;BME280;2075;51.062;6.920;2023-04-27T14:13:37;93373.84;;;-144.48;31.01
4123;BME280;2075;51.062;6.920;2023-04-27T14:16:26;93337.28;;;-144.48;30.27
4123;BME280;2075;51.062;6.920;2023-04-27T14:19:12;93349.47;;;-144.48;30.18
4123;BME280;2075;51.062;6.920;2023-04-27T14:22:02;93359.63;;;-144.48;30.47
4123;BME280;2075;51.062;6.920;2023-04-27T14:24:49;93282.44;;;-144.48;30.42
4123;BME280;2075;51.062;6.920;2023-04-27T14:27:35;93229.66;;;-144.48;29.83
4123;BME280;2075;51.062;6.920;2023-04-27T14:30:21;93172.78;;;-144.48;29.42
4123;BME280;2075;51.062;6.920;2023-04-27T14:33:08;93574.94;;;-144.48;29.37
4123;BME280;2075;51.062;6.920;2023-04-27T14:35:54;93174.81;;;-144.48;29.44
4123;BME280;2075;51.062;6.920;2023-04-27T14:38:42;93132.16;;;-144.48;29.17
4123;BME280;2075;51.062;6.920;2023-04-27T14:41:29;93152.47;;;-144.48;29.02
4123;BME280;2075;51.062;6.920;2023-04-27T14:44:15;93148.41;;;-144.48;29.17
4123;BME280;2075;51.062;6.920;2023-04-27T14:47:01;93205.28;;;-144.48;29.45
4123;BME280;2075;51.062;6.920;2023-04-27T14:49:49;93284.50;;;-144.48;29.55
4123;BME280;2075;51.062;6.920;2023-04-27T14:52:34;93126.06;;;-144.48;29.79
4123;BME280;2075;51.062;6.920;2023-04-27T14:55:20;93221.53;;;-144.48;29.19
4123;BME280;2075;51.062;6.920;2023-04-27T14:58:07;93302.75;;;-144.48;30.30
4123;BME280;2075;51.062;6.920;2023-04-27T15:00:53;93331.19;;;-144.48;30.36
4123;BME280;2075;51.062;6.920;2023-04-27T15:03:38;93278.38;;;-144.48;30.18
4123;BME280;2075;51.062;6.920;2023-04-27T15:06:25;93286.50;;;-144.48;30.05
4123;BME280;2075;51.062;6.920;2023-04-27T15:09:13;93367.75;;;-144.48;30.21
4123;BME280;2075;51.062;6.920;2023-04-27T15:11:59;93400.25;;;-144.48;30.03
4123;BME280;2075;51.062;6.920;2023-04-27T15:14:47;93262.16;;;-144.48;30.09
4123;BME280;2075;51.062;6.920;2023-04-27T15:17:33;93262.16;;;-144.48;30.71
4123;BME280;2075;51.062;6.920;2023-04-27T15:20:19;93205.28;;;-144.48;29.71
4123;BME280;2075;51.062;6.920;2023-04-27T15:23:06;93247.94;;;-144.48;29.58
4123;BME280;2075;51.062;6.920;2023-04-27T15:25:54;93282.44;;;-144.48;29.51
4123;BME280;2075;51.062;6.920;2023-04-27T15:28:40;93229.66;;;-144.48;30.12
4123;BME280;2075;51.062;6.920;2023-04-27T15:31:45;93355.56;;;-144.48;30.50
4123;BME280;2075;51.062;6.920;2023-04-27T15:34:31;93333.22;;;-144.48;30.08
4123;BME280;2075;51.062;6.920;2023-04-27T15:37:17;93288.53;;;-144.48;30.50
4123;BME280;2075;51.062;6.920;2023-04-27T15:40:06;93379.94;;;-144.48;30.42
4123;BME280;2075;51.062;6.920;2023-04-27T15:42:53;93331.19;;;-144.48;30.39
4123;BME280;2075;51.062;6.920;2023-04-27T15:45:46;93201.22;;;-144.48;30.51
4123;BME280;2075;51.062;6.920;2023-04-27T15:48:46;93591.19;;;-144.48;30.52
4123;BME280;2075;51.062;6.920;2023-04-27T15:51:33;93473.38;;;-144.48;30.42
4123;BME280;2075;51.062;6.920;2023-04-27T15:54:25;93237.78;;;-144.48;30.52
4123;BME280;2075;51.062;6.920;2023-04-27T15:57:33;93536.34;;;-144.48;30.84
4123;BME280;2075;51.062;6.920;2023-04-27T16:05:58;93274.34;;;-144.48;31.23